PWSweather.com
Personal Weather Stations
Station Observations
KNYSALTS1
Hessville, Fort Plain, NY

HessvilleFort Plain, NY

Lat: 42.86430704, Lon: -74.72141266

Elevation: 1041

Station Type: Davis Vantage Pro2 Plus

https://indiantrailweather.com

Latest ConditionsUpdated 3:50:09 AM EST Thursday, Dec 12, 2019
Currently Today's Max Today's Min Today's Average
Temperature 18.1°F-7.7°C 19.4°F-7.0°C 17.9°F-7.8°C 18.4°F-7.6°C
Dew Point 11.5°F-11.4°C 12.5°F-10.8°C 10.8°F-11.8°C 11.4°F-11.4°C
Winds 8.1 mph WSW13.0 kmh WSW 10.4 mph -16.7 kmh - - 7.0 mph 11.3 kmh
Wind Gusts 10.4 mph16.7 kmh 17.3 mph27.8 kmh - -
Humidity 75% 75% 73% 74%
Pressure 30.46 in1031.5 mb 30.46 in1031.5 mb 30.38 in1028.8 mb -
Hour Temp Dew Point Humidity Winds Wind Gusts Pressure Precip Precip Rate Daily Precip Total
03:50 AM 18.1°F-7.7°C 11.5°F-11.4°C 75% 8.1 mph WSW13.0 kmh WSW 10.4 mph16.7 kmh 30.46 in1031.5 mb - 0.00 in0.0 mm 0.00 in0.0 mm
03:40 AM 18.2°F-7.7°C 11.6°F-11.3°C 75% 9.2 mph WSW14.8 kmh WSW 15.0 mph24.1 kmh 30.46 in1031.5 mb - 0.00 in0.0 mm 0.00 in0.0 mm
03:30 AM 18.2°F-7.7°C 11.6°F-11.3°C 75% 6.9 mph WSW11.1 kmh WSW 13.8 mph22.2 kmh 30.45 in1031.2 mb - 0.00 in0.0 mm 0.00 in0.0 mm
03:20 AM 18.3°F-7.6°C 11.7°F-11.3°C 75% 6.9 mph SW11.1 kmh SW 12.7 mph20.4 kmh 30.45 in1031.2 mb - 0.00 in0.0 mm 0.00 in0.0 mm
03:10 AM 18.3°F-7.6°C 11.4°F-11.4°C 74% 6.9 mph SW11.1 kmh SW 10.4 mph16.7 kmh 30.44 in1030.8 mb - 0.00 in0.0 mm 0.00 in0.0 mm
03:00 AM 18.3°F-7.6°C 11.1°F-11.6°C 73% 6.9 mph WSW11.1 kmh WSW 12.7 mph20.4 kmh 30.45 in1031.2 mb - 0.00 in0.0 mm 0.00 in0.0 mm
02:50 AM 18.3°F-7.6°C 11.4°F-11.4°C 74% 4.6 mph WSW7.4 kmh WSW 12.7 mph20.4 kmh 30.45 in1031.2 mb - 0.00 in0.0 mm 0.00 in0.0 mm
02:40 AM 18.1°F-7.7°C 11.2°F-11.6°C 74% 6.9 mph SW11.1 kmh SW 10.4 mph16.7 kmh 30.44 in1030.8 mb - 0.00 in0.0 mm 0.00 in0.0 mm
02:30 AM 17.9°F-7.8°C 11.0°F-11.7°C 74% 5.8 mph WSW9.3 kmh WSW 10.4 mph16.7 kmh 30.44 in1030.8 mb - 0.00 in0.0 mm 0.00 in0.0 mm
02:20 AM 17.9°F-7.8°C 11.0°F-11.7°C 74% 8.1 mph WSW13.0 kmh WSW 17.3 mph27.8 kmh 30.44 in1030.8 mb - 0.00 in0.0 mm 0.00 in0.0 mm
02:10 AM 18.0°F-7.8°C 11.1°F-11.6°C 74% 6.9 mph WSW11.1 kmh WSW 10.4 mph16.7 kmh 30.43 in1030.5 mb - 0.00 in0.0 mm 0.00 in0.0 mm
02:00 AM 18.2°F-7.7°C 11.0°F-11.7°C 73% 5.8 mph WSW9.3 kmh WSW 13.8 mph22.2 kmh 30.42 in1030.1 mb - 0.00 in0.0 mm 0.00 in0.0 mm
01:50 AM 18.2°F-7.7°C 11.0°F-11.7°C 73% 8.1 mph WSW13.0 kmh WSW 15.0 mph24.1 kmh 30.42 in1030.1 mb - 0.00 in0.0 mm 0.00 in0.0 mm
01:40 AM 18.3°F-7.6°C 11.1°F-11.6°C 73% 8.1 mph WSW13.0 kmh WSW 17.3 mph27.8 kmh 30.41 in1029.8 mb - 0.00 in0.0 mm 0.00 in0.0 mm
01:30 AM 18.4°F-7.6°C 11.2°F-11.6°C 73% 10.4 mph WSW16.7 kmh WSW 17.3 mph27.8 kmh 30.41 in1029.8 mb - 0.00 in0.0 mm 0.00 in0.0 mm
01:20 AM 18.3°F-7.6°C 11.1°F-11.6°C 73% 8.1 mph WSW13.0 kmh WSW 12.7 mph20.4 kmh 30.41 in1029.8 mb - 0.00 in0.0 mm 0.00 in0.0 mm
01:10 AM 18.0°F-7.8°C 10.8°F-11.8°C 73% 4.6 mph W7.4 kmh W 9.2 mph14.8 kmh 30.40 in1029.5 mb - 0.00 in0.0 mm 0.00 in0.0 mm
01:00 AM 18.3°F-7.6°C 11.1°F-11.6°C 73% 4.6 mph W7.4 kmh W 8.1 mph13.0 kmh 30.39 in1029.1 mb - 0.00 in0.0 mm 0.00 in0.0 mm
12:50 AM 18.4°F-7.6°C 11.2°F-11.6°C 73% 6.9 mph WSW11.1 kmh WSW 11.5 mph18.5 kmh 30.39 in1029.1 mb - 0.00 in0.0 mm 0.00 in0.0 mm
12:40 AM 18.8°F-7.3°C 11.6°F-11.3°C 73% 5.8 mph W9.3 kmh W 8.1 mph13.0 kmh 30.39 in1029.1 mb - 0.00 in0.0 mm 0.00 in0.0 mm
12:30 AM 18.9°F-7.3°C 11.7°F-11.3°C 73% 8.1 mph W13.0 kmh W 12.7 mph20.4 kmh 30.38 in1028.8 mb - 0.00 in0.0 mm 0.00 in0.0 mm
12:20 AM 19.0°F-7.2°C 12.1°F-11.1°C 74% 6.9 mph WSW11.1 kmh WSW 15.0 mph24.1 kmh 30.38 in1028.8 mb - 0.00 in0.0 mm 0.00 in0.0 mm
12:10 AM 19.2°F-7.1°C 12.3°F-10.9°C 74% 4.6 mph WSW7.4 kmh WSW 10.4 mph16.7 kmh 30.38 in1028.8 mb - 0.00 in0.0 mm 0.00 in0.0 mm
12:00 AM 19.4°F-7.0°C 12.5°F-10.8°C 74% 9.2 mph W14.8 kmh W 16.1 mph25.9 kmh 30.38 in1028.8 mb - 0.00 in0.0 mm 0.00 in0.0 mm